Time;durP1;ratioP1;P1;durP2;ratioP2;P2;SDS_P1;SDS_P2;PMS_P1;PMS_P2;Temp;Humidity;BMP_temperature;BMP_pressure;BME280_temperature;BME280_humidity;BME280_pressure;Samples;Min_cycle;Max_cycle;Signal;HPM_P1;HPM_P2
2022/09/12 00:01:58;;;;;;;7.90;5.25;;;15.80;99.90;;;;;;10455072;28;20048;-79
2022/09/12 00:07:00;;;;;;;7.72;5.18;;;15.60;99.90;;;;;;10458406;28;20479;-79
2022/09/12 00:12:03;;;;;;;8.98;5.00;;;15.50;99.90;;;;;;10454050;28;20131;-78
2022/09/12 00:17:06;;;;;;;8.35;4.78;;;15.60;99.90;;;;;;10455573;28;20052;-78
2022/09/12 00:22:08;;;;;;;8.77;5.03;;;15.60;99.90;;;;;;10456767;28;20060;-78
2022/09/12 00:27:10;;;;;;;8.07;5.00;;;15.40;99.90;;;;;;10457735;28;20048;-78
2022/09/12 00:32:14;;;;;;;8.25;5.45;;;15.50;99.90;;;;;;10450236;28;20049;-78
2022/09/12 00:37:16;;;;;;;23.33;9.80;;;15.30;99.90;;;;;;10456299;28;20049;-78
2022/09/12 00:42:18;;;;;;;13.15;9.00;;;15.10;99.90;;;;;;10454607;28;20060;-79
2022/09/12 00:47:26;;;;;;;11.75;9.23;;;15.10;99.90;;;;;;10455198;28;20083;-78
2022/09/12 00:52:35;;;;;;;13.07;9.52;;;15.20;99.90;;;;;;10455224;28;20041;-78
2022/09/12 00:57:45;;;;;;;9.98;7.85;;;15.20;99.90;;;;;;10456534;28;20045;-79
2022/09/12 01:02:53;;;;;;;9.75;7.10;;;15.20;99.90;;;;;;10454278;28;20049;-78
2022/09/12 01:07:56;;;;;;;11.43;7.70;;;15.20;99.90;;;;;;10456335;28;20044;-78
2022/09/12 01:12:59;;;;;;;9.55;7.50;;;15.20;99.90;;;;;;10455087;28;20049;-78
2022/09/12 01:18:16;;;;;;;10.40;7.90;;;15.00;99.90;;;;;;10455598;28;20460;-79
2022/09/12 01:24:06;;;;;;;14.00;7.77;;;15.10;99.90;;;;;;10453380;28;20048;-78
2022/09/12 01:29:31;;;;;;;10.45;7.80;;;14.90;99.90;;;;;;10455730;28;20044;-78
2022/09/12 01:34:45;;;;;;;9.93;7.40;;;15.00;99.90;;;;;;10452973;28;20041;-78
2022/09/12 01:40:03;;;;;;;10.02;7.75;;;15.00;99.90;;;;;;10454001;28;20049;-78
2022/09/12 01:45:13;;;;;;;12.30;6.97;;;14.90;99.90;;;;;;10453297;28;20414;-78
2022/09/12 01:50:21;;;;;;;12.77;6.72;;;14.90;99.90;;;;;;10455028;28;20045;-79
2022/09/12 01:55:28;;;;;;;10.30;7.40;;;14.90;99.90;;;;;;10452900;28;20608;-78
2022/09/12 02:00:33;;;;;;;13.77;7.75;;;14.80;99.90;;;;;;10456784;28;20053;-79
2022/09/12 02:05:43;;;;;;;10.20;6.78;;;14.80;99.90;;;;;;10460844;28;20041;-78
2022/09/12 02:10:56;;;;;;;9.45;6.03;;;14.70;99.90;;;;;;10463050;28;20048;-78
2022/09/12 02:16:04;;;;;;;8.05;6.10;;;14.70;99.90;;;;;;10460109;28;20048;-78
2022/09/12 02:21:08;;;;;;;8.23;6.30;;;14.60;99.90;;;;;;10462054;28;20086;-79
2022/09/12 02:26:19;;;;;;;10.90;6.68;;;14.60;99.90;;;;;;10460769;28;20041;-77
2022/09/12 02:31:27;;;;;;;8.45;5.47;;;14.60;99.90;;;;;;10462140;28;20498;-78
2022/09/12 02:36:45;;;;;;;11.55;5.82;;;14.40;99.90;;;;;;10459597;28;20392;-78
2022/09/12 02:41:48;;;;;;;9.55;5.47;;;14.20;99.90;;;;;;10461846;28;20063;-78
2022/09/12 02:46:56;;;;;;;8.40;5.07;;;14.10;99.90;;;;;;10460154;28;20048;-79
2022/09/12 02:52:01;;;;;;;8.85;5.22;;;14.00;99.90;;;;;;10461483;28;20052;-78
2022/09/12 02:57:03;;;;;;;8.20;5.97;;;13.80;99.90;;;;;;10459692;28;20067;-78
2022/09/12 03:02:23;;;;;;;13.93;7.40;;;13.60;99.90;;;;;;10459383;28;20053;-78
2022/09/12 03:07:45;;;;;;;10.35;6.20;;;13.40;99.90;;;;;;10459801;28;20041;-78
2022/09/12 03:12:58;;;;;;;7.53;5.50;;;13.40;99.90;;;;;;10457066;28;20052;-79
2022/09/12 03:18:13;;;;;;;7.00;5.45;;;13.50;99.90;;;;;;10460426;28;20041;-78
2022/09/12 03:23:31;;;;;;;20.35;5.63;;;13.40;99.90;;;;;;10458509;28;20063;-78
2022/09/12 03:28:35;;;;;;;33.17;5.13;;;13.30;99.90;;;;;;10459781;28;20052;-78
2022/09/12 03:33:37;;;;;;;12.30;5.45;;;12.90;99.90;;;;;;10458421;28;20053;-79
2022/09/12 03:38:41;;;;;;;7.25;4.47;;;12.70;99.90;;;;;;10457479;28;20057;-78
2022/09/12 03:43:43;;;;;;;8.18;4.72;;;12.80;99.90;;;;;;10458227;28;20084;-78
2022/09/12 03:48:45;;;;;;;6.72;4.40;;;12.80;99.90;;;;;;10458915;28;20052;-79
2022/09/12 03:53:49;;;;;;;6.50;3.90;;;12.90;99.90;;;;;;10456660;28;20048;-78
2022/09/12 03:58:51;;;;;;;5.18;3.88;;;13.00;99.90;;;;;;10455675;28;20053;-80
2022/09/12 04:03:53;;;;;;;5.10;3.67;;;13.00;99.90;;;;;;10458470;28;20067;-78
2022/09/12 04:08:57;;;;;;;4.90;3.65;;;13.00;99.90;;;;;;10457364;28;20049;-78
2022/09/12 04:13:59;;;;;;;5.30;3.92;;;13.10;99.90;;;;;;10456159;28;20144;-78
2022/09/12 04:19:01;;;;;;;6.18;3.50;;;13.10;99.90;;;;;;10455292;28;20052;-79
2022/09/12 04:24:05;;;;;;;6.82;3.67;;;13.10;99.90;;;;;;10456829;28;20057;-78
2022/09/12 04:29:07;;;;;;;5.53;3.30;;;13.20;99.90;;;;;;10454927;28;20053;-79
2022/09/12 04:34:09;;;;;;;7.70;3.47;;;13.20;99.90;;;;;;10456901;28;20068;-79
2022/09/12 04:39:13;;;;;;;5.25;3.85;;;13.10;99.90;;;;;;10456296;28;20510;-79
2022/09/12 04:44:15;;;;;;;6.22;4.03;;;13.00;99.90;;;;;;10455849;28;20053;-79
2022/09/12 04:49:18;;;;;;;5.70;3.80;;;12.90;99.90;;;;;;10455402;28;20071;-81
2022/09/12 04:54:22;;;;;;;6.72;3.97;;;12.80;99.90;;;;;;10457162;28;20087;-86
2022/09/12 04:59:24;;;;;;;8.32;4.90;;;12.70;99.90;;;;;;10454969;28;20052;-84
2022/09/12 05:04:26;;;;;;;6.82;4.30;;;12.50;99.90;;;;;;10454560;28;20095;-85
2022/09/12 05:09:29;;;;;;;6.70;4.80;;;12.60;99.90;;;;;;10452886;28;20052;-83
2022/09/12 05:14:32;;;;;;;10.75;4.50;;;12.60;99.90;;;;;;10453898;28;20053;-79
2022/09/12 05:19:34;;;;;;;6.20;4.47;;;12.70;99.90;;;;;;10436044;28;20456;-79
2022/09/12 05:24:37;;;;;;;8.07;4.65;;;12.70;99.90;;;;;;10442922;28;20052;-78
2022/09/12 05:29:39;;;;;;;6.95;4.53;;;12.80;99.90;;;;;;10437267;28;20049;-79
2022/09/12 05:34:41;;;;;;;7.32;4.72;;;12.70;99.90;;;;;;10452563;28;20053;-79
2022/09/12 05:39:45;;;;;;;7.25;4.47;;;12.80;99.90;;;;;;10423115;28;20128;-78
2022/09/12 05:44:47;;;;;;;7.68;4.70;;;12.80;99.90;;;;;;10451022;28;20687;-78
2022/09/12 05:49:51;;;;;;;7.05;4.65;;;12.60;99.90;;;;;;10450402;28;20049;-79
2022/09/12 05:54:54;;;;;;;8.20;4.55;;;12.60;99.90;;;;;;10440859;28;20056;-77
2022/09/12 05:59:56;;;;;;;7.35;5.13;;;12.70;99.90;;;;;;10451966;28;20106;-78
2022/09/12 06:04:58;;;;;;;6.85;5.05;;;12.70;99.90;;;;;;10454319;28;20071;-81
2022/09/12 06:10:02;;;;;;;8.60;5.20;;;12.80;99.90;;;;;;10419101;28;20049;-80
2022/09/12 06:15:05;;;;;;;7.65;5.00;;;12.90;99.90;;;;;;10434363;28;20045;-80
2022/09/12 06:20:08;;;;;;;7.95;5.35;;;13.00;99.90;;;;;;10446145;28;20038;-79
2022/09/12 06:25:11;;;;;;;7.63;5.43;;;13.10;99.90;;;;;;10446693;28;20052;-77
2022/09/12 06:30:14;;;;;;;8.68;6.15;;;13.10;99.90;;;;;;10449541;28;20049;-84
2022/09/12 06:35:16;;;;;;;10.38;6.68;;;13.00;99.90;;;;;;10424650;28;20056;-82
2022/09/12 06:40:20;;;;;;;8.52;6.00;;;13.10;99.90;;;;;;10437813;28;20449;-77
2022/09/12 06:45:22;;;;;;;8.85;7.00;;;13.20;99.90;;;;;;10452204;28;20483;-79
2022/09/12 06:50:24;;;;;;;28.00;8.35;;;13.30;99.90;;;;;;10460027;28;20569;-78
2022/09/12 06:55:28;;;;;;;26.13;8.60;;;13.20;99.90;;;;;;10461947;28;20053;-77
2022/09/12 07:00:31;;;;;;;13.23;8.57;;;13.10;99.90;;;;;;10455261;28;20068;-78
2022/09/12 07:05:34;;;;;;;19.25;8.57;;;13.20;99.90;;;;;;10455181;28;20045;-78
2022/09/12 07:10:37;;;;;;;9.85;7.82;;;13.30;99.90;;;;;;10460923;28;20049;-78
2022/09/12 07:15:40;;;;;;;20.23;8.70;;;13.50;99.90;;;;;;10461337;28;20037;-77
2022/09/12 07:20:45;;;;;;;12.50;9.02;;;13.60;99.90;;;;;;10446230;28;20056;-77
2022/09/12 07:25:55;;;;;;;12.73;8.82;;;13.60;99.90;;;;;;10453344;28;20402;-79
2022/09/12 07:30:58;;;;;;;15.02;9.45;;;13.90;99.90;;;;;;10452026;28;20059;-80
2022/09/12 07:36:02;;;;;;;13.00;9.75;;;14.00;99.90;;;;;;10446514;28;20045;-78
2022/09/12 07:41:12;;;;;;;13.48;9.60;;;14.10;99.90;;;;;;10450696;28;20056;-79
2022/09/12 07:46:15;;;;;;;12.45;9.10;;;14.30;99.90;;;;;;10454314;28;20479;-80
2022/09/12 07:51:18;;;;;;;13.15;9.18;;;14.40;99.90;;;;;;10446063;28;20064;-80
2022/09/12 07:56:22;;;;;;;12.57;9.40;;;14.50;99.90;;;;;;10454256;28;20128;-80
2022/09/12 08:01:24;;;;;;;12.93;9.40;;;14.60;99.90;;;;;;10453897;28;20053;-79
2022/09/12 08:06:29;;;;;;;11.50;8.65;;;14.70;99.90;;;;;;10453634;28;20106;-80
2022/09/12 08:11:32;;;;;;;11.18;8.20;;;14.80;99.90;;;;;;10441582;28;20045;-77
2022/09/12 08:16:34;;;;;;;10.27;7.97;;;15.00;99.90;;;;;;10453865;28;20049;-79
2022/09/12 08:21:36;;;;;;;10.18;7.80;;;15.10;99.90;;;;;;10453388;28;20471;-77
2022/09/12 08:26:40;;;;;;;12.07;7.70;;;15.20;99.90;;;;;;10452654;28;20511;-80
2022/09/12 08:31:42;;;;;;;10.93;7.43;;;15.30;99.90;;;;;;10448420;28;20446;-79
2022/09/12 08:36:44;;;;;;;11.15;7.47;;;15.40;99.90;;;;;;10452765;28;20064;-82
2022/09/12 08:41:49;;;;;;;13.10;7.57;;;15.50;99.90;;;;;;10449543;28;20065;-82
2022/09/12 08:47:11;;;;;;;11.95;7.78;;;15.50;99.90;;;;;;10448932;28;20053;-82
2022/09/12 08:52:18;;;;;;;9.95;7.18;;;15.80;99.90;;;;;;10423481;28;20395;-79
2022/09/12 08:57:23;;;;;;;10.82;7.78;;;15.90;99.90;;;;;;10448061;28;20055;-79
2022/09/12 09:03:00;;;;;;;8.82;6.20;;;15.90;99.90;;;;;;10451962;28;20094;-79
2022/09/12 09:08:29;;;;;;;8.90;6.18;;;16.10;99.90;;;;;;10432688;28;20072;-79
2022/09/12 09:19:16;;;;;;;10.68;6.00;;;16.30;99.90;;;;;;10451046;28;20278;-80
2022/09/12 09:24:23;;;;;;;6.70;5.32;;;16.50;99.90;;;;;;10409360;28;20100;-79
2022/09/12 09:29:34;;;;;;;6.90;5.25;;;16.60;99.90;;;;;;10420346;28;20041;-77
2022/09/12 09:34:39;;;;;;;8.65;4.90;;;16.80;99.90;;;;;;10449925;28;20098;-79
2022/09/12 09:39:52;;;;;;;8.18;4.68;;;16.90;99.90;;;;;;10431570;28;20118;-79
2022/09/12 09:45:00;;;;;;;6.85;4.50;;;17.00;99.90;;;;;;10416913;28;20060;-79
2022/09/12 09:50:02;;;;;;;7.70;4.50;;;17.20;99.90;;;;;;10446735;28;20045;-79
2022/09/12 09:55:13;;;;;;;6.05;4.38;;;17.30;99.90;;;;;;10450270;28;20049;-78
2022/09/12 10:05:01;;;;;;;6.03;3.85;;;17.60;99.90;;;;;;10726056;27;20378;-79
2022/09/12 10:10:14;;;;;;;6.50;3.88;;;17.70;99.90;;;;;;10646183;27;20054;-81
2022/09/12 10:15:20;;;;;;;6.00;4.10;;;17.80;99.90;;;;;;10669224;27;20551;-79
2022/09/12 10:20:35;;;;;;;6.43;3.53;;;17.90;99.90;;;;;;10645940;27;20043;-79
2022/09/12 10:25:38;;;;;;;6.53;3.90;;;18.20;99.90;;;;;;10655222;27;20050;-79
2022/09/12 10:30:51;;;;;;;5.78;3.95;;;18.40;99.90;;;;;;10654262;27;20074;-79
2022/09/12 10:35:55;;;;;;;5.85;3.83;;;18.50;99.90;;;;;;10615070;27;20443;-79
2022/09/12 10:41:00;;;;;;;4.90;3.60;;;18.60;99.90;;;;;;10609041;28;20051;-79
2022/09/12 10:46:29;;;;;;;4.68;3.35;;;18.80;99.90;;;;;;10645256;27;20069;-79
2022/09/12 10:51:32;;;;;;;5.20;3.20;;;19.00;99.90;;;;;;10646957;27;20138;-79
2022/09/12 10:56:40;;;;;;;5.22;3.30;;;19.10;99.90;;;;;;10626800;27;20051;-79
2022/09/12 11:01:45;;;;;;;5.28;3.08;;;19.20;99.90;;;;;;10651965;27;20089;-77
2022/09/12 11:07:03;;;;;;;5.40;3.15;;;19.40;99.10;;;;;;10691167;27;20049;-77
2022/09/12 11:12:15;;;;;;;4.90;3.00;;;19.60;99.30;;;;;;10669781;27;20134;-78
2022/09/12 11:17:36;;;;;;;5.38;2.60;;;19.60;97.90;;;;;;10628717;27;20043;-77
2022/09/12 11:23:04;;;;;;;4.18;2.78;;;19.80;97.60;;;;;;10635457;27;20047;-77
2022/09/12 11:28:32;;;;;;;5.88;3.08;;;20.10;96.80;;;;;;10637727;27;20489;-85
2022/09/12 11:33:42;;;;;;;6.10;2.80;;;20.20;97.80;;;;;;10619581;27;20039;-77
2022/09/12 11:39:03;;;;;;;3.72;2.70;;;20.50;97.30;;;;;;10628754;27;20047;-76
2022/09/12 11:44:17;;;;;;;4.10;2.38;;;20.60;95.70;;;;;;10639064;27;20051;-77
2022/09/12 11:49:31;;;;;;;4.38;2.40;;;20.70;95.00;;;;;;10627781;27;20055;-77
2022/09/12 11:54:40;;;;;;;4.97;2.33;;;20.90;95.30;;;;;;10646483;27;20504;-79
2022/09/12 11:59:48;;;;;;;4.07;2.22;;;21.00;94.90;;;;;;10650581;27;20050;-77
2022/09/12 12:05:05;;;;;;;4.32;2.13;;;21.30;93.70;;;;;;10659256;27;20059;-77
2022/09/12 12:10:29;;;;;;;3.17;2.00;;;21.50;93.50;;;;;;10664486;27;20047;-76
2022/09/12 12:15:32;;;;;;;4.07;2.00;;;21.60;93.50;;;;;;10624595;27;20051;-77
2022/09/12 12:20:34;;;;;;;3.47;2.20;;;21.80;93.50;;;;;;10625033;27;20500;-78
2022/09/12 12:25:52;;;;;;;3.03;1.80;;;22.00;93.10;;;;;;10629033;27;20052;-76
2022/09/12 12:31:04;;;;;;;3.70;2.20;;;22.30;91.30;;;;;;10642884;27;20488;-78
2022/09/12 12:36:09;;;;;;;5.95;3.00;;;22.40;91.00;;;;;;10587965;27;20494;-78
2022/09/12 12:41:44;;;;;;;3.35;2.13;;;22.70;89.80;;;;;;10633644;27;20047;-78
2022/09/12 12:47:15;;;;;;;3.03;1.80;;;23.00;88.40;;;;;;10601739;27;20115;-78
2022/09/12 12:52:18;;;;;;;3.00;1.73;;;23.20;88.40;;;;;;10648293;27;20054;-78
2022/09/12 12:57:39;;;;;;;2.88;1.70;;;23.60;87.00;;;;;;10630005;27;20070;-77
2022/09/12 13:02:54;;;;;;;3.42;1.60;;;23.80;84.60;;;;;;10661987;27;20093;-77
2022/09/12 13:08:03;;;;;;;2.70;1.70;;;24.10;82.90;;;;;;10657986;27;20047;-77
2022/09/12 13:13:08;;;;;;;4.85;1.50;;;24.30;82.20;;;;;;10662267;27;20039;-77
2022/09/12 13:18:15;;;;;;;3.65;1.48;;;24.30;78.20;;;;;;10621848;27;20703;-76
2022/09/12 13:23:25;;;;;;;2.47;1.38;;;24.70;77.80;;;;;;10647451;27;20055;-76
2022/09/12 13:28:30;;;;;;;4.55;1.45;;;25.10;75.00;;;;;;10627921;27;20091;-76
2022/09/12 13:33:37;;;;;;;3.25;1.35;;;25.10;73.00;;;;;;10660877;27;20046;-77
2022/09/12 13:38:53;;;;;;;3.40;1.80;;;25.50;73.50;;;;;;10620007;27;20125;-76
2022/09/12 13:43:57;;;;;;;3.42;1.20;;;25.80;70.20;;;;;;10653956;27;20142;-76
2022/09/12 13:49:08;;;;;;;2.50;1.10;;;26.10;67.80;;;;;;10620859;27;20050;-77
2022/09/12 13:54:17;;;;;;;1.98;1.10;;;26.60;67.10;;;;;;10658759;27;20042;-77
2022/09/12 13:59:21;;;;;;;2.78;1.40;;;27.10;63.20;;;;;;10638739;27;20488;-76
2022/09/12 14:09:53;;;;;;;1.73;0.90;;;27.90;61.70;;;;;;10654688;27;20048;-77
2022/09/12 14:14:57;;;;;;;1.88;0.90;;;28.50;59.90;;;;;;10617545;28;20054;-77
2022/09/12 14:20:02;;;;;;;1.77;0.80;;;29.10;58.90;;;;;;10634918;27;20050;-77
2022/09/12 14:25:09;;;;;;;3.08;1.73;;;29.50;54.80;;;;;;10646965;27;20088;-78
2022/09/12 14:30:25;;;;;;;2.67;1.20;;;30.20;53.80;;;;;;10615247;27;20046;-77
2022/09/12 14:35:27;;;;;;;2.00;0.98;;;30.80;51.50;;;;;;10648913;27;20058;-77
2022/09/12 14:40:30;;;;;;;2.15;0.80;;;31.30;52.20;;;;;;10655120;27;20046;-77
2022/09/12 14:45:33;;;;;;;2.25;0.90;;;32.10;47.50;;;;;;10616111;27;20162;-77
2022/09/12 14:50:36;;;;;;;2.03;1.00;;;32.80;46.50;;;;;;10638214;27;20070;-77
2022/09/12 14:55:46;;;;;;;3.45;1.00;;;33.30;46.30;;;;;;10661291;27;20055;-76
2022/09/12 15:01:01;;;;;;;4.85;2.15;;;33.60;45.10;;;;;;10641638;27;20066;-76
2022/09/12 15:06:07;;;;;;;2.40;1.10;;;34.20;44.40;;;;;;10661852;27;20100;-76
2022/09/12 15:11:09;;;;;;;2.50;1.10;;;34.70;43.90;;;;;;10659335;27;20130;-77
2022/09/12 15:16:12;;;;;;;3.17;1.00;;;35.50;43.60;;;;;;10622712;27;20051;-77
2022/09/12 15:21:19;;;;;;;4.00;0.90;;;35.80;42.50;;;;;;10623635;27;20051;-76
2022/09/12 15:26:26;;;;;;;1.75;0.80;;;36.10;40.50;;;;;;10648045;27;20043;-77
2022/09/12 15:31:31;;;;;;;1.50;0.80;;;36.40;41.40;;;;;;10623385;27;20055;-77
2022/09/12 15:36:33;;;;;;;2.80;1.00;;;36.70;40.10;;;;;;10649039;27;20050;-77
2022/09/12 15:41:37;;;;;;;1.98;0.90;;;36.90;39.40;;;;;;10659221;27;20062;-77
2022/09/12 15:46:41;;;;;;;2.20;0.85;;;37.00;38.60;;;;;;10627833;27;20054;-77
2022/09/12 15:51:43;;;;;;;10.07;7.20;;;37.80;38.70;;;;;;10621384;27;20140;-77
2022/09/12 15:56:45;;;;;;;6.60;3.63;;;38.60;38.60;;;;;;10621967;27;20051;-77
2022/09/12 16:01:49;;;;;;;2.92;1.55;;;38.00;38.80;;;;;;10625457;27;20058;-77
2022/09/12 16:06:51;;;;;;;2.95;0.80;;;38.20;38.40;;;;;;10649638;27;20043;-77
2022/09/12 16:11:53;;;;;;;1.58;0.75;;;38.10;39.50;;;;;;10626716;27;20055;-77
2022/09/12 16:16:57;;;;;;;16.73;12.32;;;38.00;38.90;;;;;;10624106;27;20515;-96
2022/09/12 16:21:59;;;;;;;17.05;14.32;;;37.90;43.10;;;;;;10635120;27;20051;-92
2022/09/12 16:27:01;;;;;;;6.18;4.90;;;38.30;42.50;;;;;;10630535;27;20056;-87
2022/09/12 16:32:05;;;;;;;12.40;9.90;;;38.20;39.80;;;;;;10640283;27;20043;-90
2022/09/12 16:37:07;;;;;;;12.63;10.85;;;38.00;41.80;;;;;;10650236;27;20044;-90
2022/09/12 16:42:09;;;;;;;12.68;9.00;;;37.40;43.30;;;;;;10606149;27;20043;-87
2022/09/12 16:47:13;;;;;;;7.00;5.18;;;37.20;42.70;;;;;;10645452;27;20700;-87
2022/09/12 16:52:15;;;;;;;6.22;3.78;;;36.20;43.30;;;;;;10615370;27;20062;-85
2022/09/12 16:57:17;;;;;;;4.00;2.22;;;35.30;44.80;;;;;;10630252;27;20474;-84
2022/09/12 17:02:20;;;;;;;5.03;2.38;;;34.10;46.70;;;;;;10584223;27;20059;-83
2022/09/12 17:07:23;;;;;;;4.57;3.35;;;33.80;47.70;;;;;;10655153;27;20476;-85
2022/09/12 17:12:25;;;;;;;2.88;1.60;;;33.70;48.40;;;;;;10653356;27;20480;-83
2022/09/12 17:17:29;;;;;;;2.75;1.10;;;33.10;48.60;;;;;;10641475;27;20051;-85
2022/09/12 17:22:31;;;;;;;3.38;1.10;;;32.60;49.10;;;;;;10620698;27;20078;-83
2022/09/12 17:27:33;;;;;;;2.53;0.90;;;32.00;49.40;;;;;;10635483;27;20047;-77
2022/09/12 17:32:36;;;;;;;4.70;1.20;;;31.40;51.10;;;;;;10654685;27;20039;-76
2022/09/12 17:37:38;;;;;;;4.40;1.40;;;30.70;51.60;;;;;;10656209;27;20055;-78
2022/09/12 17:42:43;;;;;;;2.78;1.30;;;29.90;52.90;;;;;;10648361;27;20043;-76
2022/09/12 17:47:46;;;;;;;3.17;1.42;;;29.00;53.00;;;;;;10634404;27;20038;-76
2022/09/12 17:52:50;;;;;;;3.97;1.80;;;28.40;54.80;;;;;;10620228;27;20039;-78
2022/09/12 17:57:53;;;;;;;3.53;1.92;;;27.80;55.50;;;;;;10612783;27;20129;-76
2022/09/12 18:02:56;;;;;;;5.43;1.95;;;27.40;57.50;;;;;;10593199;27;20562;-76
2022/09/12 18:07:58;;;;;;;3.70;1.80;;;27.00;59.30;;;;;;10607427;27;20770;-75
2022/09/12 18:13:00;;;;;;;4.47;2.20;;;26.60;58.90;;;;;;10616740;27;20073;-75
2022/09/12 18:18:05;;;;;;;4.10;2.20;;;26.20;59.60;;;;;;10616676;27;20062;-75
2022/09/12 18:23:07;;;;;;;4.82;1.83;;;25.80;60.00;;;;;;10614343;27;20362;-75
2022/09/12 18:28:09;;;;;;;4.10;2.08;;;25.50;60.30;;;;;;10622807;27;20089;-75
2022/09/12 18:33:12;;;;;;;4.38;2.20;;;25.20;61.00;;;;;;10621623;27;20050;-75
2022/09/12 18:38:14;;;;;;;3.90;1.83;;;25.00;61.10;;;;;;10633235;27;20640;-75
2022/09/12 18:43:16;;;;;;;3.90;1.60;;;24.70;61.60;;;;;;10642079;27;20051;-75
2022/09/12 18:48:20;;;;;;;3.97;1.45;;;24.40;62.00;;;;;;10616017;27;20051;-79
2022/09/12 18:53:22;;;;;;;3.25;1.20;;;24.20;63.10;;;;;;10610672;27;20269;-80
2022/09/12 18:58:24;;;;;;;3.33;1.30;;;24.10;63.40;;;;;;10637751;27;20047;-78
2022/09/12 19:03:28;;;;;;;3.35;1.40;;;23.90;63.90;;;;;;10616817;27;20055;-86
2022/09/12 19:08:30;;;;;;;7.43;1.50;;;23.60;66.70;;;;;;10626458;27;20069;-78
2022/09/12 19:13:35;;;;;;;5.55;1.25;;;23.00;70.00;;;;;;10617331;27;20047;-80
2022/09/12 19:18:40;;;;;;;5.50;1.35;;;22.50;72.00;;;;;;10626927;27;20552;-78
2022/09/12 19:23:42;;;;;;;4.28;1.50;;;22.30;73.50;;;;;;10632706;27;20055;-81
2022/09/12 19:28:45;;;;;;;5.72;1.30;;;22.10;75.20;;;;;;10666575;27;20054;-81
2022/09/12 19:33:50;;;;;;;3.90;1.30;;;21.90;76.70;;;;;;10616525;27;20047;-81
2022/09/12 19:38:52;;;;;;;6.32;1.38;;;21.70;78.20;;;;;;10659353;27;20480;-81
2022/09/12 19:43:55;;;;;;;4.00;1.55;;;21.60;80.20;;;;;;10639789;27;20051;-77
2022/09/12 19:48:58;;;;;;;3.40;1.45;;;21.40;80.60;;;;;;10633931;27;20451;-77
2022/09/12 19:54:01;;;;;;;3.58;1.30;;;21.00;82.10;;;;;;10609156;27;20043;-78
2022/09/12 19:59:03;;;;;;;4.30;2.08;;;20.90;80.10;;;;;;10650368;27;20057;-77
2022/09/12 20:04:07;;;;;;;4.90;1.83;;;20.80;81.60;;;;;;10638020;27;20085;-78
2022/09/12 20:09:09;;;;;;;3.92;2.00;;;20.80;84.60;;;;;;10659180;27;20042;-78
2022/09/12 20:14:11;;;;;;;6.70;2.17;;;20.70;85.80;;;;;;10622546;27;20046;-78
2022/09/12 20:19:14;;;;;;;4.78;2.00;;;20.60;85.80;;;;;;10664727;27;20051;-78
2022/09/12 20:24:16;;;;;;;4.13;2.00;;;20.50;87.30;;;;;;10651907;27;20059;-78
2022/09/12 20:29:18;;;;;;;4.63;2.08;;;20.40;87.70;;;;;;10646973;27;20039;-78
2022/09/12 20:34:22;;;;;;;7.10;3.22;;;20.20;89.70;;;;;;10596420;27;20050;-78
2022/09/12 20:39:25;;;;;;;7.00;2.42;;;19.90;90.90;;;;;;10661933;27;20126;-77
2022/09/12 20:44:29;;;;;;;5.65;2.17;;;19.90;91.60;;;;;;10622709;27;20100;-77
2022/09/12 20:49:32;;;;;;;3.75;2.13;;;19.90;92.10;;;;;;10660358;27;20047;-77
2022/09/12 20:54:34;;;;;;;4.43;1.90;;;19.80;92.40;;;;;;10653027;27;20488;-77
2022/09/12 20:59:39;;;;;;;4.75;2.00;;;19.80;92.80;;;;;;10622960;27;20484;-76
2022/09/12 21:04:42;;;;;;;5.32;2.13;;;19.80;93.10;;;;;;10623142;27;20058;-77
2022/09/12 21:09:44;;;;;;;5.63;2.30;;;19.70;93.70;;;;;;10665325;27;20511;-77
2022/09/12 21:14:46;;;;;;;4.72;1.73;;;19.60;94.00;;;;;;10665191;27;20046;-76
2022/09/12 21:19:50;;;;;;;3.40;1.90;;;19.40;94.10;;;;;;10649413;27;20046;-76
2022/09/12 21:24:52;;;;;;;5.07;2.03;;;18.90;94.90;;;;;;10623088;27;20043;-79
2022/09/12 21:29:55;;;;;;;6.88;2.20;;;18.80;95.40;;;;;;10642490;27;20062;-78
2022/09/12 21:34:58;;;;;;;5.97;3.00;;;18.80;95.90;;;;;;10636569;27;20113;-78
2022/09/12 21:40:00;;;;;;;6.32;2.60;;;18.80;95.70;;;;;;10630157;27;20054;-78
2022/09/12 21:45:02;;;;;;;4.15;2.38;;;18.50;96.40;;;;;;10626255;27;20070;-77
2022/09/12 21:50:08;;;;;;;7.00;2.42;;;18.40;96.80;;;;;;10639022;27;20047;-78
2022/09/12 21:55:11;;;;;;;6.03;2.30;;;18.60;96.60;;;;;;10608120;27;20473;-77
2022/09/12 22:00:15;;;;;;;4.65;2.20;;;18.60;96.80;;;;;;10621030;27;20055;-75
2022/09/12 22:05:20;;;;;;;4.25;2.15;;;18.60;96.90;;;;;;10620376;28;20043;-76
2022/09/12 22:10:22;;;;;;;7.47;2.30;;;18.70;96.80;;;;;;10630510;27;20421;-76
2022/09/12 22:15:24;;;;;;;5.20;2.45;;;18.70;97.30;;;;;;10622740;27;20054;-75
2022/09/12 22:20:28;;;;;;;6.20;2.80;;;18.60;97.60;;;;;;10643884;27;20070;-75
2022/09/12 22:25:30;;;;;;;5.13;2.60;;;18.50;97.70;;;;;;10663278;27;20483;-77
2022/09/12 22:30:32;;;;;;;4.93;2.50;;;18.30;97.90;;;;;;10657852;27;20046;-77
2022/09/12 22:35:36;;;;;;;5.10;2.30;;;18.40;98.00;;;;;;10627925;27;20071;-77
2022/09/12 22:40:38;;;;;;;5.22;2.20;;;18.20;98.10;;;;;;10647080;27;20385;-77
2022/09/12 22:45:41;;;;;;;5.78;2.47;;;18.20;98.30;;;;;;10629729;27;20047;-77
2022/09/12 22:50:45;;;;;;;5.43;2.33;;;18.00;98.60;;;;;;10643045;27;20475;-77
2022/09/12 22:55:47;;;;;;;8.75;2.20;;;17.70;99.00;;;;;;10665306;27;20117;-77
2022/09/12 23:00:50;;;;;;;7.95;2.20;;;17.60;99.50;;;;;;10639634;27;20104;-77
2022/09/12 23:05:53;;;;;;;6.07;2.47;;;17.70;99.50;;;;;;10621818;28;20501;-78
2022/09/12 23:11:01;;;;;;;5.15;2.30;;;17.40;99.40;;;;;;10644427;27;20059;-76
2022/09/12 23:16:07;;;;;;;4.25;2.17;;;17.30;99.90;;;;;;10629004;27;20082;-77
2022/09/12 23:21:13;;;;;;;5.65;2.88;;;17.20;99.90;;;;;;10630072;27;20051;-77
2022/09/12 23:26:18;;;;;;;4.90;2.03;;;17.30;99.90;;;;;;10628899;27;20047;-76
2022/09/12 23:31:21;;;;;;;4.50;2.10;;;17.30;99.90;;;;;;10646716;27;20053;-76
2022/09/12 23:36:26;;;;;;;6.15;2.53;;;17.30;99.90;;;;;;10641972;27;20069;-76
2022/09/12 23:41:28;;;;;;;4.70;2.00;;;17.30;99.90;;;;;;10637106;27;20051;-76
2022/09/12 23:46:30;;;;;;;3.92;2.20;;;17.40;99.90;;;;;;10638018;27;20429;-76
2022/09/12 23:51:34;;;;;;;7.13;2.17;;;17.30;99.90;;;;;;10639193;27;20137;-76
2022/09/12 23:56:36;;;;;;;3.67;1.92;;;17.20;99.90;;;;;;10631886;27;20054;-76
